createdAt,value
2022-08-08T00:02:31.170Z,99.90
2022-08-08T00:07:51.753Z,99.90
2022-08-08T00:13:20.712Z,99.90
2022-08-08T00:18:57.464Z,99.90
2022-08-08T00:24:04.324Z,99.90
2022-08-08T00:29:45.114Z,99.90
2022-08-08T00:35:20.149Z,99.90
2022-08-08T00:41:10.962Z,99.90
2022-08-08T00:46:16.468Z,99.90
2022-08-08T00:51:57.179Z,99.90
2022-08-08T00:57:46.243Z,99.90
2022-08-08T01:04:02.547Z,99.90
2022-08-08T01:09:34.774Z,99.90
2022-08-08T01:15:17.204Z,99.90
2022-08-08T01:21:07.282Z,99.90
2022-08-08T01:26:40.594Z,99.90
2022-08-08T01:32:16.269Z,99.90
2022-08-08T01:37:56.378Z,99.90
2022-08-08T01:43:13.623Z,99.90
2022-08-08T01:48:52.344Z,99.90
2022-08-08T01:55:45.008Z,99.90
2022-08-08T02:00:02.207Z,99.90
2022-08-08T02:06:04.270Z,99.90
2022-08-08T02:11:58.838Z,99.90
2022-08-08T02:17:42.965Z,99.90
2022-08-08T02:23:22.857Z,99.90
2022-08-08T02:28:48.167Z,99.90
2022-08-08T02:34:27.518Z,99.90
2022-08-08T02:40:22.443Z,99.90
2022-08-08T02:45:33.750Z,99.90
2022-08-08T02:51:55.740Z,99.90
2022-08-08T02:57:40.606Z,99.90
2022-08-08T03:05:00.773Z,99.90
2022-08-08T03:09:22.979Z,99.90
2022-08-08T03:16:01.580Z,99.90
2022-08-08T03:20:17.201Z,99.90
2022-08-08T03:25:34.021Z,99.90
2022-08-08T03:30:42.714Z,99.90
2022-08-08T03:35:52.018Z,99.90
2022-08-08T03:40:56.770Z,99.90
2022-08-08T03:46:09.291Z,99.90
2022-08-08T03:51:15.217Z,99.90
2022-08-08T03:56:31.701Z,99.90
2022-08-08T04:02:12.256Z,99.90
2022-08-08T04:07:01.591Z,99.90
2022-08-08T04:12:11.813Z,99.90
2022-08-08T04:17:46.010Z,99.90
2022-08-08T04:22:43.771Z,99.90
2022-08-08T04:28:35.254Z,99.90
2022-08-08T04:33:12.469Z,99.90
2022-08-08T04:38:21.721Z,99.90
2022-08-08T04:43:31.301Z,99.90
2022-08-08T04:48:50.430Z,99.90
2022-08-08T04:54:38.835Z,99.90
2022-08-08T04:59:17.113Z,99.90
2022-08-08T05:04:27.243Z,99.90
2022-08-08T05:09:30.831Z,99.90
2022-08-08T05:14:38.810Z,99.90
2022-08-08T05:20:11.295Z,99.90
2022-08-08T05:25:09.237Z,99.90
2022-08-08T05:30:11.865Z,99.90
2022-08-08T05:35:23.370Z,99.90
2022-08-08T05:40:29.221Z,99.90
2022-08-08T05:45:42.998Z,99.90
2022-08-08T05:50:59.000Z,99.90
2022-08-08T05:56:16.155Z,99.90
2022-08-08T06:01:56.317Z,99.90
2022-08-08T06:06:50.439Z,99.90
2022-08-08T06:11:53.918Z,99.90
2022-08-08T06:17:01.299Z,99.90
2022-08-08T06:22:42.151Z,99.90
2022-08-08T06:27:56.281Z,99.90
2022-08-08T06:33:03.371Z,99.90
2022-08-08T06:38:09.400Z,99.90
2022-08-08T06:43:30.529Z,99.90
2022-08-08T06:48:39.038Z,99.90
2022-08-08T06:53:50.394Z,99.90
2022-08-08T06:58:59.834Z,99.90
2022-08-08T07:04:37.832Z,99.90
2022-08-08T07:09:59.983Z,99.90
2022-08-08T07:15:11.462Z,99.90
2022-08-08T07:20:35.323Z,99.90
2022-08-08T07:25:54.743Z,99.90
2022-08-08T07:30:59.722Z,99.90
2022-08-08T07:36:05.405Z,99.90
2022-08-08T07:41:24.682Z,99.90
2022-08-08T07:46:31.176Z,99.90
2022-08-08T07:51:45.483Z,99.90
2022-08-08T07:57:29.859Z,99.90
2022-08-08T08:02:48.522Z,99.90
2022-08-08T08:08:04.000Z,99.90
2022-08-08T08:13:25.507Z,99.90
2022-08-08T08:18:56.002Z,99.90
2022-08-08T08:24:02.781Z,99.90
2022-08-08T08:29:06.064Z,99.90
2022-08-08T08:34:09.693Z,99.90
2022-08-08T08:39:17.706Z,99.90
2022-08-08T08:44:28.987Z,99.90
2022-08-08T08:49:34.613Z,99.90
2022-08-08T08:54:39.091Z,99.90
2022-08-08T08:59:59.385Z,99.90
2022-08-08T09:05:06.124Z,99.90
2022-08-08T09:10:13.894Z,99.90
2022-08-08T09:15:41.386Z,99.90
2022-08-08T09:21:58.126Z,99.90
2022-08-08T09:26:19.080Z,99.90
2022-08-08T09:31:42.123Z,99.90
2022-08-08T09:36:51.804Z,99.90
2022-08-08T09:42:21.746Z,99.90
2022-08-08T09:48:09.671Z,99.90
2022-08-08T09:52:59.332Z,99.90
2022-08-08T09:58:19.844Z,99.90
2022-08-08T10:03:31.521Z,99.90
2022-08-08T10:08:44.816Z,99.90
2022-08-08T10:13:57.526Z,99.90
2022-08-08T10:19:04.826Z,99.90
2022-08-08T10:24:12.159Z,99.90
2022-08-08T10:29:59.105Z,99.90
2022-08-08T10:36:09.451Z,99.90
2022-08-08T10:40:39.932Z,99.90
2022-08-08T10:45:56.773Z,99.90
2022-08-08T10:51:10.869Z,99.90
2022-08-08T10:56:27.502Z,99.90
2022-08-08T11:01:37.555Z,99.90
2022-08-08T11:06:41.461Z,99.90
2022-08-08T11:12:05.960Z,99.90
2022-08-08T11:17:14.913Z,99.90
2022-08-08T11:22:21.009Z,99.90
2022-08-08T11:27:37.289Z,99.90
2022-08-08T11:32:41.930Z,99.40
2022-08-08T11:38:36.202Z,98.20
2022-08-08T11:43:11.813Z,96.30
2022-08-08T11:48:20.681Z,98.00
2022-08-08T11:53:24.277Z,96.10
2022-08-08T11:58:34.845Z,95.30
2022-08-08T12:03:46.908Z,96.10
2022-08-08T12:08:49.306Z,95.00
2022-08-08T12:14:03.139Z,95.60
2022-08-08T12:19:12.295Z,93.40
2022-08-08T12:24:19.662Z,92.80
2022-08-08T12:29:40.455Z,95.20
2022-08-08T12:34:48.595Z,95.60
2022-08-08T12:40:01.989Z,93.90
2022-08-08T12:45:57.789Z,95.60
2022-08-08T12:50:40.540Z,97.00
2022-08-08T12:56:18.024Z,98.40
2022-08-08T13:01:24.282Z,98.60
2022-08-08T13:06:26.653Z,99.10
2022-08-08T13:12:28.266Z,96.30
2022-08-08T13:17:00.602Z,93.60
2022-08-08T13:22:06.972Z,92.10
2022-08-08T13:27:15.078Z,91.60
2022-08-08T13:32:17.964Z,91.50
2022-08-08T13:37:28.033Z,91.10
2022-08-08T13:42:46.657Z,90.30
2022-08-08T13:47:59.474Z,90.90
2022-08-08T13:53:01.457Z,88.90
2022-08-08T13:58:23.239Z,91.30
2022-08-08T14:03:52.152Z,88.00
2022-08-08T14:08:56.900Z,89.70
2022-08-08T14:14:02.281Z,93.80
2022-08-08T14:19:09.450Z,91.80
2022-08-08T14:24:15.977Z,95.20
2022-08-08T14:29:28.544Z,93.50
2022-08-08T14:34:32.924Z,89.80
2022-08-08T14:40:05.720Z,93.50
2022-08-08T14:45:14.319Z,94.00
2022-08-08T14:50:38.000Z,91.30
2022-08-08T14:55:42.972Z,90.30
2022-08-08T15:00:46.650Z,90.30
2022-08-08T15:05:54.687Z,90.80
2022-08-08T15:10:59.920Z,90.40
2022-08-08T15:16:03.715Z,87.90
2022-08-08T15:21:08.105Z,88.50
2022-08-08T15:26:13.000Z,90.70
2022-08-08T15:31:21.724Z,87.80
2022-08-08T15:36:37.442Z,88.50
2022-08-08T15:41:45.909Z,86.80
2022-08-08T15:46:50.521Z,87.60
2022-08-08T15:51:54.501Z,87.20
2022-08-08T15:56:56.794Z,89.70
2022-08-08T16:02:00.501Z,82.70
2022-08-08T16:07:03.801Z,81.80
2022-08-08T16:13:05.266Z,81.70
2022-08-08T16:17:58.213Z,80.60
2022-08-08T16:22:52.169Z,81.80
2022-08-08T16:27:57.794Z,80.30
2022-08-08T16:33:00.197Z,80.70
2022-08-08T16:38:10.928Z,82.80
2022-08-08T16:43:14.622Z,80.00
2022-08-08T16:48:16.677Z,81.90
2022-08-08T16:55:00.530Z,83.70
2022-08-08T16:58:42.763Z,79.80
2022-08-08T17:03:58.784Z,80.90
2022-08-08T17:09:04.030Z,84.30
2022-08-08T17:14:17.759Z,82.20
2022-08-08T17:19:21.078Z,81.40
2022-08-08T17:24:27.998Z,80.10
2022-08-08T17:29:34.122Z,82.70
2022-08-08T17:35:14.438Z,83.40
2022-08-08T17:40:10.742Z,84.20
2022-08-08T17:45:22.471Z,81.70
2022-08-08T17:50:25.978Z,81.70
2022-08-08T17:56:06.109Z,82.10
2022-08-08T18:00:57.391Z,83.00
2022-08-08T18:05:59.420Z,82.00
2022-08-08T18:11:15.805Z,83.80
2022-08-08T18:16:23.220Z,84.80
2022-08-08T18:22:00.198Z,87.00
2022-08-08T18:26:56.083Z,89.30
2022-08-08T18:31:59.436Z,91.60
2022-08-08T18:37:08.588Z,91.10
2022-08-08T18:42:16.561Z,91.00
2022-08-08T18:47:21.390Z,91.50
2022-08-08T18:52:26.063Z,91.50
2022-08-08T18:57:31.965Z,92.00
2022-08-08T19:02:39.067Z,92.50
2022-08-08T19:07:56.564Z,92.90
2022-08-08T19:12:58.357Z,93.00
2022-08-08T19:18:31.935Z,94.80
2022-08-08T19:23:27.965Z,98.00
2022-08-08T19:28:31.014Z,98.80
2022-08-08T19:33:51.767Z,99.00
2022-08-08T19:38:57.042Z,99.90
2022-08-08T19:44:04.132Z,99.90
2022-08-08T19:49:14.900Z,99.90
2022-08-08T19:54:16.953Z,99.90
2022-08-08T19:59:22.699Z,99.90
2022-08-08T20:04:24.986Z,99.90
2022-08-08T20:09:30.069Z,99.90
2022-08-08T20:14:36.016Z,99.90
2022-08-08T20:19:43.835Z,99.90
2022-08-08T20:24:45.738Z,99.90
2022-08-08T20:30:00.375Z,99.90
2022-08-08T20:35:04.152Z,99.90
2022-08-08T20:40:08.010Z,99.90
2022-08-08T20:45:10.319Z,99.90
2022-08-08T20:50:14.770Z,99.90
2022-08-08T20:55:25.800Z,99.90
2022-08-08T21:00:28.014Z,99.90
2022-08-08T21:05:31.994Z,99.90
2022-08-08T21:10:33.992Z,99.90
2022-08-08T21:16:05.453Z,99.90
2022-08-08T21:20:58.289Z,99.90
2022-08-08T21:26:00.310Z,99.90
2022-08-08T21:31:05.829Z,99.90
2022-08-08T21:36:29.429Z,99.90
2022-08-08T21:41:42.699Z,99.90
2022-08-08T21:48:20.134Z,99.90
2022-08-08T21:54:31.446Z,99.90
2022-08-08T21:57:41.881Z,99.90
2022-08-08T22:02:46.075Z,99.90
2022-08-08T22:07:49.005Z,99.90
2022-08-08T22:12:51.775Z,99.90
2022-08-08T22:17:53.955Z,99.90
2022-08-08T22:22:56.866Z,99.90
2022-08-08T22:29:04.722Z,99.90
2022-08-08T22:34:13.772Z,99.90
2022-08-08T22:38:50.871Z,99.90
2022-08-08T22:44:05.586Z,99.90
2022-08-08T22:49:09.281Z,99.90
2022-08-08T22:54:32.377Z,99.90
2022-08-08T22:59:36.307Z,99.90
2022-08-08T23:04:56.053Z,99.90
2022-08-08T23:09:59.482Z,99.90
2022-08-08T23:16:39.476Z,99.90
2022-08-08T23:20:27.122Z,99.90
2022-08-08T23:25:29.518Z,99.90
2022-08-08T23:30:39.207Z,99.90
2022-08-08T23:36:06.965Z,99.90
2022-08-08T23:41:05.114Z,99.90
2022-08-08T23:49:05.809Z,99.90
2022-08-08T23:51:42.435Z,99.90
2022-08-08T23:56:58.202Z,99.90
